sensor_id;sensor_type;location;lat;lon;timestamp;temperature;humidity
18729;DHT22;9493;51.884;5.188;2023-02-21T00:00:56;8.60;99.90
18729;DHT22;9493;51.884;5.188;2023-02-21T00:03:42;8.60;99.90
18729;DHT22;9493;51.884;5.188;2023-02-21T00:06:26;8.50;99.90
18729;DHT22;9493;51.884;5.188;2023-02-21T00:09:11;8.60;99.90
18729;DHT22;9493;51.884;5.188;2023-02-21T00:11:59;8.60;99.90
18729;DHT22;9493;51.884;5.188;2023-02-21T00:14:43;8.50;99.90
18729;DHT22;9493;51.884;5.188;2023-02-21T00:17:28;8.60;99.90
18729;DHT22;9493;51.884;5.188;2023-02-21T00:20:14;8.50;99.90
18729;DHT22;9493;51.884;5.188;2023-02-21T00:22:59;8.60;99.90
18729;DHT22;9493;51.884;5.188;2023-02-21T00:25:43;8.60;99.90
18729;DHT22;9493;51.884;5.188;2023-02-21T00:28:28;8.70;99.90
18729;DHT22;9493;51.884;5.188;2023-02-21T00:31:12;8.60;99.90
18729;DHT22;9493;51.884;5.188;2023-02-21T00:34:01;8.50;99.90
18729;DHT22;9493;51.884;5.188;2023-02-21T00:36:46;8.60;99.90
18729;DHT22;9493;51.884;5.188;2023-02-21T00:39:30;8.80;99.90
18729;DHT22;9493;51.884;5.188;2023-02-21T00:42:15;8.60;99.90
18729;DHT22;9493;51.884;5.188;2023-02-21T00:44:59;8.60;99.90
18729;DHT22;9493;51.884;5.188;2023-02-21T00:47:43;8.60;99.90
18729;DHT22;9493;51.884;5.188;2023-02-21T00:50:27;8.60;99.90
18729;DHT22;9493;51.884;5.188;2023-02-21T00:53:13;8.60;99.90
18729;DHT22;9493;51.884;5.188;2023-02-21T00:55:57;8.50;99.90
18729;DHT22;9493;51.884;5.188;2023-02-21T00:58:42;8.60;99.90
18729;DHT22;9493;51.884;5.188;2023-02-21T01:01:26;8.60;99.90
18729;DHT22;9493;51.884;5.188;2023-02-21T01:04:10;8.60;99.90
18729;DHT22;9493;51.884;5.188;2023-02-21T01:06:54;8.60;99.90
18729;DHT22;9493;51.884;5.188;2023-02-21T01:09:40;8.60;99.90
18729;DHT22;9493;51.884;5.188;2023-02-21T01:12:24;8.60;99.90
18729;DHT22;9493;51.884;5.188;2023-02-21T01:15:09;8.60;99.90
18729;DHT22;9493;51.884;5.188;2023-02-21T01:17:54;8.60;99.90
18729;DHT22;9493;51.884;5.188;2023-02-21T01:20:38;8.60;99.90
18729;DHT22;9493;51.884;5.188;2023-02-21T01:23:23;8.50;99.90
18729;DHT22;9493;51.884;5.188;2023-02-21T01:26:09;8.50;99.90
18729;DHT22;9493;51.884;5.188;2023-02-21T01:28:53;8.50;99.90
18729;DHT22;9493;51.884;5.188;2023-02-21T01:31:37;8.60;99.90
18729;DHT22;9493;51.884;5.188;2023-02-21T01:34:22;8.50;99.90
18729;DHT22;9493;51.884;5.188;2023-02-21T01:37:06;8.50;99.90
18729;DHT22;9493;51.884;5.188;2023-02-21T01:39:50;8.60;99.90
18729;DHT22;9493;51.884;5.188;2023-02-21T01:42:36;8.50;99.90
18729;DHT22;9493;51.884;5.188;2023-02-21T01:45:43;8.70;99.90
18729;DHT22;9493;51.884;5.188;2023-02-21T01:48:29;8.60;99.90
18729;DHT22;9493;51.884;5.188;2023-02-21T01:51:18;8.40;99.90
18729;DHT22;9493;51.884;5.188;2023-02-21T01:54:04;8.40;99.90
18729;DHT22;9493;51.884;5.188;2023-02-21T01:56:50;8.30;99.90
18729;DHT22;9493;51.884;5.188;2023-02-21T01:59:36;8.30;99.90
18729;DHT22;9493;51.884;5.188;2023-02-21T02:02:26;8.30;99.90
18729;DHT22;9493;51.884;5.188;2023-02-21T02:05:11;8.30;99.90
18729;DHT22;9493;51.884;5.188;2023-02-21T02:07:56;8.30;99.90
18729;DHT22;9493;51.884;5.188;2023-02-21T02:10:42;8.30;99.90
18729;DHT22;9493;51.884;5.188;2023-02-21T02:13:49;8.30;99.90
18729;DHT22;9493;51.884;5.188;2023-02-21T02:16:27;8.30;99.90
18729;DHT22;9493;51.884;5.188;2023-02-21T02:19:09;8.30;99.90
18729;DHT22;9493;51.884;5.188;2023-02-21T02:22:11;8.30;99.90
18729;DHT22;9493;51.884;5.188;2023-02-21T02:24:55;8.20;99.90
18729;DHT22;9493;51.884;5.188;2023-02-21T02:27:41;8.30;99.90
18729;DHT22;9493;51.884;5.188;2023-02-21T02:30:39;8.30;99.90
18729;DHT22;9493;51.884;5.188;2023-02-21T02:33:37;8.30;99.90
18729;DHT22;9493;51.884;5.188;2023-02-21T02:36:12;8.20;99.90
18729;DHT22;9493;51.884;5.188;2023-02-21T02:38:48;8.20;99.90
18729;DHT22;9493;51.884;5.188;2023-02-21T02:41:23;8.20;99.90
18729;DHT22;9493;51.884;5.188;2023-02-21T02:43:54;8.30;99.90
18729;DHT22;9493;51.884;5.188;2023-02-21T02:46:27;8.20;99.90
18729;DHT22;9493;51.884;5.188;2023-02-21T02:48:58;8.20;99.90
18729;DHT22;9493;51.884;5.188;2023-02-21T02:51:28;8.30;99.90
18729;DHT22;9493;51.884;5.188;2023-02-21T02:53:55;8.20;99.90
18729;DHT22;9493;51.884;5.188;2023-02-21T02:56:22;8.20;99.90
18729;DHT22;9493;51.884;5.188;2023-02-21T02:58:54;8.30;99.90
18729;DHT22;9493;51.884;5.188;2023-02-21T03:04:31;8.10;99.90
18729;DHT22;9493;51.884;5.188;2023-02-21T03:07:09;8.20;99.90
18729;DHT22;9493;51.884;5.188;2023-02-21T03:09:48;8.10;99.90
18729;DHT22;9493;51.884;5.188;2023-02-21T03:12:23;8.30;99.90
18729;DHT22;9493;51.884;5.188;2023-02-21T03:14:59;8.30;99.90
18729;DHT22;9493;51.884;5.188;2023-02-21T03:17:29;8.20;99.90
18729;DHT22;9493;51.884;5.188;2023-02-21T03:19:59;8.20;99.90
18729;DHT22;9493;51.884;5.188;2023-02-21T03:22:30;8.20;99.90
18729;DHT22;9493;51.884;5.188;2023-02-21T03:24:59;8.10;99.90
18729;DHT22;9493;51.884;5.188;2023-02-21T03:27:29;8.10;99.90
18729;DHT22;9493;51.884;5.188;2023-02-21T03:30:01;8.40;99.90
18729;DHT22;9493;51.884;5.188;2023-02-21T03:32:32;8.10;99.90
18729;DHT22;9493;51.884;5.188;2023-02-21T03:34:59;8.10;99.90
18729;DHT22;9493;51.884;5.188;2023-02-21T03:37:33;8.10;99.90
18729;DHT22;9493;51.884;5.188;2023-02-21T03:40:05;8.20;99.90
18729;DHT22;9493;51.884;5.188;2023-02-21T03:42:38;8.10;99.90
18729;DHT22;9493;51.884;5.188;2023-02-21T03:45:05;8.10;99.90
18729;DHT22;9493;51.884;5.188;2023-02-21T03:47:32;8.10;99.90
18729;DHT22;9493;51.884;5.188;2023-02-21T03:49:59;8.10;99.90
18729;DHT22;9493;51.884;5.188;2023-02-21T03:52:26;8.10;99.90
18729;DHT22;9493;51.884;5.188;2023-02-21T03:54:55;8.10;99.90
18729;DHT22;9493;51.884;5.188;2023-02-21T03:57:22;8.10;99.90
18729;DHT22;9493;51.884;5.188;2023-02-21T03:59:49;8.10;99.90
18729;DHT22;9493;51.884;5.188;2023-02-21T04:02:17;8.10;99.90
18729;DHT22;9493;51.884;5.188;2023-02-21T04:04:44;7.90;99.90
18729;DHT22;9493;51.884;5.188;2023-02-21T04:07:13;8.10;99.90
18729;DHT22;9493;51.884;5.188;2023-02-21T04:09:41;8.10;99.90
18729;DHT22;9493;51.884;5.188;2023-02-21T04:12:10;8.00;99.90
18729;DHT22;9493;51.884;5.188;2023-02-21T04:14:37;8.00;99.90
18729;DHT22;9493;51.884;5.188;2023-02-21T04:17:04;8.00;99.90
18729;DHT22;9493;51.884;5.188;2023-02-21T04:19:31;8.00;99.90
18729;DHT22;9493;51.884;5.188;2023-02-21T04:21:58;8.10;99.90
18729;DHT22;9493;51.884;5.188;2023-02-21T04:24:25;8.00;99.90
18729;DHT22;9493;51.884;5.188;2023-02-21T04:26:52;8.10;99.90
18729;DHT22;9493;51.884;5.188;2023-02-21T04:29:21;8.20;99.90
18729;DHT22;9493;51.884;5.188;2023-02-21T04:31:48;8.00;99.90
18729;DHT22;9493;51.884;5.188;2023-02-21T04:34:15;8.10;99.90
18729;DHT22;9493;51.884;5.188;2023-02-21T04:36:42;8.10;99.90
18729;DHT22;9493;51.884;5.188;2023-02-21T04:39:09;8.10;99.90
18729;DHT22;9493;51.884;5.188;2023-02-21T04:41:36;8.00;99.90
18729;DHT22;9493;51.884;5.188;2023-02-21T04:46:47;8.00;99.90
18729;DHT22;9493;51.884;5.188;2023-02-21T04:51:50;8.00;99.90
18729;DHT22;9493;51.884;5.188;2023-02-21T04:54:17;8.00;99.90
18729;DHT22;9493;51.884;5.188;2023-02-21T04:56:50;8.10;99.90
